< Typhoon 202122 2022 Season Typhoon 202202 >
Typhoon 202201 (MALAKAS)
General InformationTrack Information on Google MapsDetailed Wind InformationForecast History on Google MapsAccess Analytics MapList of All Images || NewsDisaster Info.WeblogTrackbackTyphoon FrontTwiphoonTyphoon Now!Typhoon ImaginationJMA Disaster Info. XMLResourceGoogle EarthGE AnimationAtom FeedGeoJSON
Detalied Best Track (Time Zone = UTC)
Year Month Day Hour Lat. Long. Pressure (hPa) Wind (kt) Class Image Chart
2022 4 6 06 3.7 148.5 1004 30 2 Image Chart
2022 4 6 09 3.7 148.4 1004 30 2 Image Chart
2022 4 6 12 3.8 148.3 1006 30 2 Image Chart
2022 4 6 15 3.8 147.9 1004 30 2 Image Chart
2022 4 6 18 3.9 148.0 1004 30 2 Image Chart
2022 4 6 21 4.0 148.0 1004 30 2 Image Chart
2022 4 7 00 3.8 148.4 1006 30 2 Image Chart
2022 4 7 03 3.9 148.1 1004 30 2 Image Chart
2022 4 7 06 4.0 147.7 1004 30 2 Image Chart
2022 4 7 09 4.1 147.4 1004 30 2 Image Chart
2022 4 7 12 4.1 147.1 1004 30 2 Image Chart
2022 4 7 15 4.1 146.9 1004 30 2 Image Chart
2022 4 7 18 4.1 146.4 1002 30 2 Image Chart
2022 4 7 21 4.5 146.1 1002 30 2 Image Chart
2022 4 8 00 4.5 146.0 1000 35 3 Image Chart
2022 4 8 03 4.6 145.6 1000 35 3 Image Chart
2022 4 8 06 4.8 145.3 998 35 3 Image Chart
2022 4 8 09 5.3 144.9 998 35 3 Image Chart
2022 4 8 12 5.8 144.6 996 40 3 Image Chart
2022 4 8 15 6.3 144.5 996 40 3 Image Chart
2022 4 8 18 6.4 144.5 996 40 3 Image Chart
2022 4 8 21 6.5 144.4 996 40 3 Image Chart
2022 4 9 00 7.1 144.6 996 40 3 Image Chart
2022 4 9 03 7.3 144.0 996 40 3 Image Chart
2022 4 9 06 7.5 143.6 996 40 3 Image Chart
2022 4 9 09 7.8 143.1 996 40 3 Image Chart
2022 4 9 12 8.2 142.4 996 40 3 Image Chart
2022 4 9 15 8.7 141.9 996 40 3 Image Chart
2022 4 9 18 9.4 141.2 996 40 3 Image Chart
2022 4 9 21 10.2 140.6 996 40 3 Image Chart
2022 4 10 00 10.9 140.2 994 45 3 Image Chart
2022 4 10 03 11.4 139.3 994 45 3 Image Chart
2022 4 10 06 11.6 138.8 992 45 3 Image Chart
2022 4 10 09 11.7 138.6 992 45 3 Image Chart
2022 4 10 12 11.7 137.9 990 50 4 Image Chart
2022 4 10 15 11.8 137.5 990 50 4 Image Chart
2022 4 10 18 11.8 137.1 990 50 4 Image Chart
2022 4 10 21 11.9 136.7 990 50 4 Image Chart
2022 4 11 00 11.9 136.1 990 50 4 Image Chart
2022 4 11 03 12.3 136.1 990 50 4 Image Chart
2022 4 11 06 12.7 136.1 990 50 4 Image Chart
2022 4 11 09 13.2 136.1 990 50 4 Image Chart
2022 4 11 12 13.8 136.0 985 55 4 Image Chart
2022 4 11 15 14.1 136.0 985 55 4 Image Chart
2022 4 11 18 14.7 135.8 980 60 4 Image Chart
2022 4 11 21 15.2 135.4 980 60 4 Image Chart
2022 4 12 00 15.5 135.2 975 65 5 Image Chart
2022 4 12 03 15.6 135.1 975 65 5 Image Chart
2022 4 12 06 15.8 135.2 970 70 5 Image Chart
2022 4 12 09 16.0 135.1 970 70 5 Image Chart
2022 4 12 12 16.1 135.3 955 80 5 Image Chart
2022 4 12 15 16.3 135.7 955 80 5 Image Chart
2022 4 12 18 16.7 135.9 955 80 5 Image Chart
2022 4 12 21 17.0 136.1 955 80 5 Image Chart
2022 4 13 00 17.3 136.4 955 80 5 Image Chart
2022 4 13 03 17.5 136.6 955 80 5 Image Chart
2022 4 13 06 17.8 137.0 955 80 5 Image Chart
2022 4 13 09 18.2 137.4 955 80 5 Image Chart
2022 4 13 12 18.8 137.6 950 85 5 Image Chart
2022 4 13 15 19.4 137.5 950 85 5 Image Chart
2022 4 13 18 19.8 137.5 950 85 5 Image Chart
2022 4 13 21 20.1 137.7 950 85 5 Image Chart
2022 4 14 00 20.4 137.9 950 85 5 Image Chart
2022 4 14 03 21.1 138.2 950 85 5 Image Chart
2022 4 14 06 21.9 138.6 950 85 5 Image Chart
2022 4 14 09 22.1 138.8 950 85 5 Image Chart
2022 4 14 12 22.6 139.0 950 85 5 Image Chart
2022 4 14 15 23.1 139.6 950 85 5 Image Chart
2022 4 14 18 23.6 140.4 950 85 5 Image Chart
2022 4 14 21 24.8 140.8 955 80 5 Image Chart
2022 4 15 00 26.1 141.1 965 75 5 Image Chart
2022 4 15 03 27.1 141.2 965 70 5 Image Chart
2022 4 15 06 27.8 141.7 970 65 5 Image Chart
2022 4 15 09 29.3 142.6 975 60 4 Image Chart
2022 4 15 12 30.0 143.7 980 55 4 Image Chart
2022 4 15 15 30.5 144.1 980 55 4 Image Chart
2022 4 15 18 32.0 146.0 976 55 6 Image Chart
2022 5 15 18 32.0 146.0 976 55 6 Image Chart
Japan Meteorological Agency Best Track Data | Correction Date : 2022-05-15
< Typhoon 202122 2022 Season Typhoon 202202 >

Help